Time;durP1;ratioP1;P1;durP2;ratioP2;P2;SDS_P1;SDS_P2;PMS_P1;PMS_P2;Temp;Humidity;BMP_temperature;BMP_pressure;BME280_temperature;BME280_humidity;BME280_pressure;Samples;Min_cycle;Max_cycle;Signal;HPM_P1;HPM_P2
2022/04/27 00:01:40;;;;;;;3.50;2.60;;;;;;;10.50;81.06;95600.91;4389998;32;20207;-61
2022/04/27 00:04:05;;;;;;;3.47;3.27;;;;;;;10.65;81.16;95599.91;4389430;32;20193;-64
2022/04/27 00:06:31;;;;;;;3.20;3.00;;;;;;;10.67;81.28;95597.75;4390138;32;20204;-62
2022/04/27 00:08:56;;;;;;;3.53;3.03;;;;;;;10.45;78.04;95600.19;4390667;32;20189;-62
2022/04/27 00:11:22;;;;;;;3.50;3.20;;;;;;;10.72;81.61;95596.91;4389745;32;20219;-62
2022/04/27 00:13:47;;;;;;;3.47;3.27;;;;;;;10.59;80.59;95598.41;4389056;32;20248;-62
2022/04/27 00:16:12;;;;;;;3.27;3.07;;;;;;;10.83;80.93;95598.31;4390269;32;20188;-62
2022/04/27 00:18:38;;;;;;;3.63;3.33;;;;;;;10.87;80.74;95596.69;4391567;32;20189;-61
2022/04/27 00:21:06;;;;;;;2.83;2.67;;;;;;;10.87;80.47;95605.44;4388123;32;20233;-62
2022/04/27 00:23:33;;;;;;;2.90;2.80;;;;;;;10.93;79.49;95596.31;4390131;32;20189;-62
2022/04/27 00:25:59;;;;;;;3.67;3.43;;;;;;;10.96;80.53;95594.97;4388715;32;20234;-62
2022/04/27 00:28:24;;;;;;;3.87;3.13;;;;;;;10.92;80.23;95593.97;4390026;32;20193;-61
2022/04/27 00:30:50;;;;;;;3.47;3.13;;;;;;;10.70;80.02;95589.22;4390030;32;20216;-62
2022/04/27 00:33:15;;;;;;;3.10;3.00;;;;;;;10.58;80.65;95592.31;4389517;32;20257;-62
2022/04/27 00:35:41;;;;;;;3.47;3.23;;;;;;;10.31;80.39;95589.50;4390220;32;20184;-63
2022/04/27 00:38:08;;;;;;;3.40;3.20;;;;;;;10.44;80.69;95585.34;4391247;32;20203;-62
2022/04/27 00:40:33;;;;;;;3.63;3.43;;;;;;;10.13;80.92;95585.72;4385745;32;20218;-62
2022/04/27 00:42:59;;;;;;;3.50;3.20;;;;;;;10.60;81.63;95590.16;4388445;32;20192;-62
2022/04/27 00:45:24;;;;;;;3.67;3.47;;;;;;;10.59;80.88;95593.91;4387961;32;20193;-61
2022/04/27 00:47:49;;;;;;;5.07;3.50;;;;;;;10.64;79.84;95591.16;4387538;32;20192;-61
2022/04/27 00:50:15;;;;;;;3.97;3.63;;;;;;;10.72;81.33;95589.75;4389058;32;20222;-61
2022/04/27 00:52:41;;;;;;;3.07;2.90;;;;;;;10.49;81.56;95586.06;4378427;32;20193;-61
2022/04/27 00:55:06;;;;;;;3.20;3.00;;;;;;;10.68;80.92;95589.50;4387899;32;20197;-61
2022/04/27 00:57:33;;;;;;;3.17;2.97;;;;;;;10.62;79.86;95595.16;4390054;32;20207;-61
2022/04/27 00:59:58;;;;;;;3.20;2.90;;;;;;;10.66;81.24;95596.97;4389372;32;20215;-61
2022/04/27 01:02:24;;;;;;;3.37;3.07;;;;;;;10.82;80.23;95602.84;4389645;32;20196;-62
2022/04/27 01:04:49;;;;;;;3.47;3.27;;;;;;;10.52;79.58;95604.06;4388558;32;20189;-61
2022/04/27 01:07:15;;;;;;;3.07;2.87;;;;;;;10.71;80.27;95600.63;4388549;32;20184;-61
2022/04/27 01:09:40;;;;;;;2.93;2.83;;;;;;;10.80;80.02;95601.59;4389486;32;20208;-61
2022/04/27 01:12:06;;;;;;;3.40;3.10;;;;;;;10.73;80.39;95607.25;4412444;32;20193;-61
2022/04/27 01:14:47;;;;;;;3.30;3.00;;;;;;;10.80;79.08;95605.03;4388308;32;20189;-62
2022/04/27 01:17:13;;;;;;;3.57;3.37;;;;;;;10.81;80.31;95598.62;4385385;32;20188;-61
2022/04/27 01:19:38;;;;;;;3.43;3.13;;;;;;;10.76;80.15;95600.56;4391680;32;20249;-62
2022/04/27 01:22:04;;;;;;;3.40;3.13;;;;;;;10.73;78.93;95611.75;4390712;32;20184;-62
2022/04/27 01:24:30;;;;;;;3.13;2.93;;;;;;;10.79;79.22;95607.97;4390946;32;20188;-62
2022/04/27 01:26:56;;;;;;;3.77;3.50;;;;;;;10.80;80.47;95607.69;4392163;32;20219;-62
2022/04/27 01:29:25;;;;;;;3.30;3.00;;;;;;;10.56;80.78;95604.28;4392269;32;20188;-61
2022/04/27 01:31:52;;;;;;;3.30;3.00;;;;;;;10.78;79.52;95604.53;4392403;32;20267;-62
2022/04/27 01:34:19;;;;;;;3.33;3.00;;;;;;;10.76;79.95;95601.38;4392046;32;20241;-62
2022/04/27 01:36:44;;;;;;;3.40;3.10;;;;;;;10.80;79.84;95605.03;4390765;32;20240;-61
2022/04/27 01:39:09;;;;;;;3.17;2.90;;;;;;;10.73;79.09;95601.94;4394684;32;20233;-61
2022/04/27 01:41:36;;;;;;;3.40;3.20;;;;;;;10.79;79.36;95607.97;4392536;32;20196;-62
2022/04/27 01:44:02;;;;;;;3.27;3.07;;;;;;;10.54;78.45;95611.75;4391049;32;20279;-62
2022/04/27 01:46:28;;;;;;;3.93;3.63;;;;;;;10.68;80.45;95607.31;4392503;32;20250;-62
2022/04/27 01:48:54;;;;;;;3.57;3.37;;;;;;;10.42;80.43;95614.00;4390788;32;20199;-61
2022/04/27 01:54:14;;;;;;;4.20;3.90;;;;;;;10.32;80.93;95618.37;4390724;32;20195;-62
2022/04/27 01:54:17;;;;;;;3.97;3.77;;;;;;;10.56;81.82;95617.56;4392244;32;20203;-62
2022/04/27 01:56:48;;;;;;;4.07;3.73;;;;;;;10.52;80.57;95622.62;4390314;32;20257;-61
2022/04/27 01:59:15;;;;;;;4.20;4.00;;;;;;;10.59;80.86;95623.09;4376688;32;20242;-62
2022/04/27 02:01:41;;;;;;;4.27;3.90;;;;;;;10.29;79.48;95618.94;4392875;32;20219;-61
2022/04/27 02:04:07;;;;;;;4.77;4.40;;;;;;;10.41;81.15;95626.47;4391809;32;20235;-61
2022/04/27 02:06:36;;;;;;;5.17;4.77;;;;;;;10.47;79.41;95624.56;4391281;32;20196;-62
2022/04/27 02:09:06;;;;;;;4.87;4.53;;;;;;;10.29;81.74;95624.25;4390520;32;20223;-62
2022/04/27 02:11:32;;;;;;;4.67;4.37;;;;;;;9.93;80.17;95623.03;4389742;32;20234;-62
2022/04/27 02:13:58;;;;;;;4.67;4.37;;;;;;;10.01;83.41;95622.41;4391776;32;20185;-62
2022/04/27 02:16:25;;;;;;;5.60;5.27;;;;;;;10.13;82.06;95635.28;4391558;32;20245;-61
2022/04/27 02:18:51;;;;;;;4.77;4.47;;;;;;;9.91;80.63;95622.53;4390787;32;20212;-61
2022/04/27 02:21:17;;;;;;;4.93;4.53;;;;;;;10.02;83.96;95623.97;4392010;32;20207;-61
2022/04/27 02:23:43;;;;;;;5.00;4.70;;;;;;;10.23;83.07;95624.56;4391701;32;20216;-62
2022/04/27 02:26:08;;;;;;;5.47;4.77;;;;;;;10.01;81.37;95630.34;4392952;32;20184;-61
2022/04/27 02:28:33;;;;;;;4.80;4.30;;;;;;;10.05;82.61;95628.72;4392130;32;20180;-62
2022/04/27 02:30:59;;;;;;;4.77;4.37;;;;;;;10.25;84.16;95628.53;4382962;32;20200;-62
2022/04/27 02:33:24;;;;;;;5.80;5.40;;;;;;;9.86;83.54;95633.16;4390575;32;20251;-61
2022/04/27 02:35:50;;;;;;;5.63;5.17;;;;;;;9.98;81.25;95628.25;4388393;32;20168;-61
2022/04/27 02:38:15;;;;;;;5.60;5.20;;;;;;;10.02;82.32;95629.28;4389077;32;20189;-61
2022/04/27 02:40:40;;;;;;;4.80;4.50;;;;;;;10.13;81.17;95636.06;4392920;32;20249;-61
2022/04/27 02:43:05;;;;;;;5.07;4.77;;;;;;;10.27;82.76;95638.84;4392106;32;20271;-61
2022/04/27 02:45:31;;;;;;;5.53;5.17;;;;;;;10.09;82.46;95643.00;4387709;32;20172;-62
2022/04/27 02:47:56;;;;;;;4.33;4.13;;;;;;;10.11;82.86;95637.41;4391409;32;20241;-62
2022/04/27 02:53:05;;;;;;;5.47;4.97;;;;;;;10.48;82.99;95644.69;4391037;32;20230;-62
2022/04/27 02:55:31;;;;;;;5.73;5.17;;;;;;;10.34;80.74;95641.97;4390597;32;20252;-62
2022/04/27 02:57:56;;;;;;;5.17;4.83;;;;;;;10.26;81.55;95646.00;4390762;32;20176;-62
2022/04/27 03:00:21;;;;;;;5.13;4.80;;;;;;;10.44;81.93;95638.38;4390815;32;20235;-62
2022/04/27 03:02:47;;;;;;;4.63;4.17;;;;;;;9.93;81.80;95654.84;4389824;32;20176;-62
2022/04/27 03:05:12;;;;;;;5.93;5.43;;;;;;;10.10;83.14;95651.75;4391300;32;20232;-63
2022/04/27 03:07:38;;;;;;;5.77;5.37;;;;;;;10.25;81.73;95651.59;4391472;32;20183;-62
2022/04/27 03:10:04;;;;;;;5.10;4.80;;;;;;;10.49;82.01;95655.03;4389040;32;20297;-62
2022/04/27 03:12:29;;;;;;;4.80;4.50;;;;;;;10.23;82.16;95654.53;4388829;32;20247;-62
2022/04/27 03:14:54;;;;;;;5.30;4.90;;;;;;;10.32;83.13;95660.81;4389771;32;20192;-62
2022/04/27 03:17:20;;;;;;;6.00;5.50;;;;;;;10.42;82.82;95664.41;4389824;32;20187;-62
2022/04/27 03:19:45;;;;;;;6.07;5.53;;;;;;;10.42;79.86;95669.69;4389172;32;20245;-62
2022/04/27 03:22:10;;;;;;;5.87;5.47;;;;;;;10.24;81.83;95665.94;4392104;32;20202;-62
2022/04/27 03:24:37;;;;;;;6.17;5.67;;;;;;;9.98;81.24;95676.75;4388465;32;20189;-62
2022/04/27 03:27:03;;;;;;;5.90;5.50;;;;;;;10.05;83.05;95673.78;4390293;32;20203;-62
2022/04/27 03:29:28;;;;;;;7.33;5.53;;;;;;;10.15;83.54;95676.34;4391027;32;20200;-62
2022/04/27 03:31:53;;;;;;;6.30;5.90;;;;;;;10.23;83.05;95667.78;4391108;32;20188;-62
2022/04/27 03:34:19;;;;;;;6.50;6.00;;;;;;;10.25;82.55;95665.66;4389168;32;20176;-62
2022/04/27 03:36:44;;;;;;;5.90;5.50;;;;;;;9.75;82.43;95679.41;4389397;32;20231;-63
2022/04/27 03:39:10;;;;;;;5.97;5.33;;;;;;;10.14;84.07;95674.75;4392720;32;20184;-63
2022/04/27 03:41:36;;;;;;;7.20;6.50;;;;;;;10.35;82.07;95670.06;4389003;32;20184;-62
2022/04/27 03:44:01;;;;;;;7.17;6.63;;;;;;;10.24;82.25;95674.66;4390592;32;20176;-62
2022/04/27 03:46:26;;;;;;;6.30;5.80;;;;;;;9.98;81.87;95675.97;4390732;32;20195;-62
2022/04/27 03:48:52;;;;;;;6.63;6.13;;;;;;;10.18;84.35;95675.78;4390549;32;20228;-62
2022/04/27 03:51:17;;;;;;;6.43;5.60;;;;;;;10.13;81.30;95685.66;4390282;32;20199;-62
2022/04/27 03:53:44;;;;;;;6.90;6.30;;;;;;;10.16;83.86;95672.63;4389184;32;20237;-62
2022/04/27 03:56:09;;;;;;;6.60;6.03;;;;;;;10.18;82.61;95685.59;4390093;32;20256;-63
2022/04/27 03:58:34;;;;;;;6.90;6.37;;;;;;;10.18;83.19;95685.59;4390035;32;20181;-63
2022/04/27 04:01:00;;;;;;;7.40;6.70;;;;;;;10.14;82.37;95690.66;4390622;32;20185;-63
2022/04/27 04:03:25;;;;;;;8.03;7.30;;;;;;;10.22;83.46;95700.69;4389074;32;20297;-62
2022/04/27 04:05:50;;;;;;;6.67;6.00;;;;;;;10.13;82.40;95704.22;4389439;32;20192;-62
2022/04/27 04:08:16;;;;;;;7.10;6.60;;;;;;;10.32;84.28;95708.53;4388407;32;20185;-63
2022/04/27 04:10:41;;;;;;;7.00;6.47;;;;;;;10.33;83.09;95704.81;4388182;32;20173;-64
2022/04/27 04:13:06;;;;;;;7.07;6.57;;;;;;;10.41;83.62;95710.56;4390971;32;20184;-63
2022/04/27 04:15:32;;;;;;;7.33;6.63;;;;;;;10.39;82.96;95702.91;4376559;32;20203;-63
2022/04/27 04:17:57;;;;;;;7.07;6.57;;;;;;;10.09;83.01;95714.56;4387772;32;20185;-63
2022/04/27 04:20:23;;;;;;;8.70;7.13;;;;;;;9.99;83.59;95719.94;4388503;32;20201;-62
2022/04/27 04:22:48;;;;;;;7.20;6.57;;;;;;;10.19;85.14;95719.78;4389698;32;20222;-63
2022/04/27 04:30:43;;;;;;;7.50;6.90;;;;;;;10.26;84.81;95722.12;4389388;32;20280;-63
2022/04/27 04:33:09;;;;;;;8.17;7.43;;;;;;;10.20;84.85;95721.38;4392207;32;20188;-62
2022/04/27 04:35:35;;;;;;;9.23;8.43;;;;;;;9.82;84.90;95736.28;4389035;32;20184;-62
2022/04/27 04:38:01;;;;;;;8.53;7.90;;;;;;;9.76;85.05;95734.75;4388138;32;20389;-62
2022/04/27 04:40:27;;;;;;;8.63;7.93;;;;;;;9.89;85.56;95746.56;4387442;32;20180;-62
2022/04/27 04:42:52;;;;;;;7.80;7.17;;;;;;;10.01;84.51;95744.31;4390029;32;20204;-62
2022/04/27 04:45:18;;;;;;;7.33;6.73;;;;;;;9.97;83.46;95748.63;4388877;32;20194;-62
2022/04/27 04:47:43;;;;;;;8.63;7.93;;;;;;;9.84;85.32;95752.69;4388263;32;20268;-62
2022/04/27 04:50:10;;;;;;;9.53;8.73;;;;;;;9.96;86.19;95750.47;4383410;32;20176;-62
2022/04/27 04:52:36;;;;;;;8.13;7.50;;;;;;;9.69;84.43;95757.31;4389627;32;20198;-63
2022/04/27 04:55:01;;;;;;;10.20;7.87;;;;;;;10.05;85.86;95761.25;4391694;32;20279;-63
2022/04/27 04:57:26;;;;;;;8.67;7.97;;;;;;;10.00;85.44;95763.94;4391800;32;20262;-63
2022/04/27 04:59:52;;;;;;;8.93;7.60;;;;;;;9.97;84.58;95765.31;4391716;32;20173;-63
2022/04/27 05:02:17;;;;;;;9.33;7.93;;;;;;;10.01;86.18;95760.22;4391173;32;20203;-62
2022/04/27 05:04:42;;;;;;;9.33;8.40;;;;;;;10.25;84.94;95758.44;4393141;32;20215;-63
2022/04/27 05:07:08;;;;;;;8.17;7.57;;;;;;;10.18;83.72;95763.28;4394402;32;20191;-63
2022/04/27 05:09:33;;;;;;;9.83;7.70;;;;;;;10.36;84.08;95772.41;4391479;32;20169;-62
2022/04/27 05:11:58;;;;;;;7.43;6.70;;;;;;;10.30;84.24;95766.38;4391371;32;20181;-62
2022/04/27 05:14:24;;;;;;;9.37;8.47;;;;;;;10.61;83.97;95764.16;4383539;32;20255;-63
2022/04/27 05:16:49;;;;;;;10.60;7.73;;;;;;;10.52;83.42;95773.03;4384758;32;20177;-62
2022/04/27 05:19:14;;;;;;;10.00;7.50;;;;;;;10.69;83.76;95770.72;4391648;32;20255;-60
2022/04/27 05:21:40;;;;;;;8.83;8.03;;;;;;;10.74;83.46;95777.84;4390832;32;20176;-61
2022/04/27 05:24:05;;;;;;;8.57;7.87;;;;;;;10.83;82.28;95776.13;4392353;32;20184;-61
2022/04/27 05:26:31;;;;;;;10.13;9.27;;;;;;;10.58;82.61;95790.50;4391927;32;20284;-61
2022/04/27 05:31:55;;;;;;;8.20;7.50;;;;;;;10.46;83.20;95787.41;4392884;32;20195;-63
2022/04/27 05:34:30;;;;;;;8.70;7.90;;;;;;;10.23;85.32;95799.56;4385783;32;20211;-64
2022/04/27 05:36:56;;;;;;;8.77;7.87;;;;;;;10.46;84.55;95792.72;4391024;32;20172;-61
2022/04/27 05:39:21;;;;;;;9.03;7.53;;;;;;;10.54;84.38;95802.75;4390417;32;20196;-61
2022/04/27 05:41:50;;;;;;;9.53;8.60;;;;;;;10.53;84.07;95798.50;4391029;32;20273;-61
2022/04/27 05:44:17;;;;;;;10.40;8.30;;;;;;;10.89;82.83;95796.25;4390856;32;20191;-61
2022/04/27 05:46:43;;;;;;;12.37;8.60;;;;;;;10.52;83.21;95804.88;4391095;32;20294;-61
2022/04/27 05:49:08;;;;;;;10.27;8.67;;;;;;;10.57;83.01;95816.25;4392580;32;20181;-61
2022/04/27 05:51:34;;;;;;;14.53;9.97;;;;;;;10.69;84.06;95813.19;4392953;32;20204;-61
2022/04/27 05:54:00;;;;;;;8.97;8.07;;;;;;;10.44;81.37;95816.87;4390537;32;20246;-61
2022/04/27 05:56:25;;;;;;;10.63;9.53;;;;;;;10.20;82.06;95816.03;4391262;32;20184;-61
2022/04/27 05:58:51;;;;;;;9.77;8.87;;;;;;;10.15;81.32;95827.47;4390856;32;20203;-62
2022/04/27 06:01:18;;;;;;;10.70;8.83;;;;;;;10.15;83.61;95824.81;4391648;32;20196;-62
2022/04/27 06:03:43;;;;;;;10.70;9.50;;;;;;;10.08;83.25;95823.53;4391302;32;20233;-61
2022/04/27 06:06:09;;;;;;;20.10;9.53;;;;;;;9.97;82.08;95828.12;4388623;32;20180;-61
2022/04/27 06:08:34;;;;;;;26.33;9.20;;;;;;;10.26;84.81;95825.53;4386737;32;20181;-61
2022/04/27 06:10:59;;;;;;;12.73;9.10;;;;;;;10.50;85.24;95836.19;4391722;32;20206;-61
2022/04/27 06:13:25;;;;;;;14.97;9.60;;;;;;;10.55;82.98;95833.50;4392292;32;20195;-62
2022/04/27 06:15:50;;;;;;;16.13;9.17;;;;;;;10.59;81.58;95834.53;4391667;32;20191;-61
2022/04/27 06:18:16;;;;;;;15.30;9.63;;;;;;;10.74;81.62;95836.22;4389262;32;20188;-62
2022/04/27 06:20:41;;;;;;;12.23;8.70;;;;;;;10.72;81.35;95841.03;4391168;32;20192;-64
2022/04/27 06:23:07;;;;;;;9.40;8.60;;;;;;;10.65;80.41;95841.34;4394530;32;20260;-61
2022/04/27 06:25:34;;;;;;;10.73;9.73;;;;;;;10.49;78.64;95850.53;4392087;32;20180;-61
2022/04/27 06:27:59;;;;;;;9.67;8.87;;;;;;;10.54;79.54;95848.63;4392643;32;20180;-62
2022/04/27 06:30:25;;;;;;;9.43;8.50;;;;;;;10.30;79.86;95853.88;4388470;32;20169;-61
2022/04/27 06:32:51;;;;;;;11.60;7.70;;;;;;;10.24;81.03;95854.19;4392313;32;20184;-62
2022/04/27 06:35:16;;;;;;;10.47;9.47;;;;;;;10.39;82.31;95866.53;4391942;32;20199;-61
2022/04/27 06:37:42;;;;;;;8.93;8.23;;;;;;;10.43;78.96;95857.72;4391451;32;20226;-63
2022/04/27 06:40:08;;;;;;;9.37;7.30;;;;;;;10.74;80.36;95854.81;4390814;32;20263;-62
2022/04/27 06:42:34;;;;;;;9.77;7.10;;;;;;;10.54;79.74;95861.09;4390949;32;20253;-62
2022/04/27 06:45:00;;;;;;;9.60;8.60;;;;;;;10.84;80.17;95860.78;4390490;32;20181;-62
2022/04/27 06:47:26;;;;;;;9.13;8.33;;;;;;;10.66;77.91;95861.50;4390382;32;20207;-59
2022/04/27 06:49:51;;;;;;;8.10;7.30;;;;;;;10.65;79.08;95863.37;4391513;32;20180;-60
2022/04/27 06:52:16;;;;;;;9.47;7.77;;;;;;;11.03;80.19;95866.16;4390531;32;20203;-60
2022/04/27 06:54:42;;;;;;;9.63;8.70;;;;;;;10.97;80.33;95864.66;4389772;32;20204;-61
2022/04/27 06:57:08;;;;;;;10.30;8.40;;;;;;;10.83;79.49;95871.69;4390145;32;20229;-62
2022/04/27 06:59:33;;;;;;;8.90;8.20;;;;;;;11.14;80.45;95861.53;4388456;32;20197;-61
2022/04/27 07:01:59;;;;;;;9.73;8.83;;;;;;;10.32;77.50;95870.28;4388984;32;20228;-64
2022/04/27 07:04:24;;;;;;;9.27;8.50;;;;;;;10.29;77.88;95862.91;4388862;32;20267;-63
2022/04/27 07:06:49;;;;;;;9.70;8.80;;;;;;;10.18;78.83;95871.19;4390668;32;20199;-62
2022/04/27 07:09:15;;;;;;;8.30;7.60;;;;;;;10.03;79.13;95869.41;4389392;32;20195;-62
2022/04/27 07:11:40;;;;;;;7.20;6.70;;;;;;;10.19;79.15;95862.97;4389069;32;20184;-63
2022/04/27 07:14:06;;;;;;;7.93;7.33;;;;;;;9.82;77.72;95866.09;4390554;32;20195;-66
2022/04/27 07:16:31;;;;;;;7.30;6.70;;;;;;;9.98;77.86;95869.44;4388670;32;20279;-67
2022/04/27 07:18:56;;;;;;;8.70;8.07;;;;;;;10.21;76.63;95868.78;4388759;32;20184;-63
2022/04/27 07:21:22;;;;;;;7.80;7.30;;;;;;;10.17;77.21;95870.37;4390429;32;20267;-63
2022/04/27 07:23:47;;;;;;;8.87;8.13;;;;;;;10.06;78.25;95879.47;4389907;32;20176;-62
2022/04/27 07:26:13;;;;;;;7.97;7.37;;;;;;;10.06;78.75;95876.03;4388884;32;20273;-62
2022/04/27 07:28:38;;;;;;;7.70;7.20;;;;;;;10.22;78.82;95872.22;4391704;32;20189;-65
2022/04/27 07:31:07;;;;;;;8.03;7.43;;;;;;;10.47;77.67;95879.97;4388722;32;20233;-62
2022/04/27 07:33:34;;;;;;;8.43;7.73;;;;;;;10.45;76.42;95876.81;4388959;32;20196;-62
2022/04/27 07:35:59;;;;;;;7.87;7.27;;;;;;;10.56;76.46;95883.63;4386030;32;20192;-63
2022/04/27 07:38:25;;;;;;;7.17;6.67;;;;;;;10.70;76.21;95882.97;4387879;32;20203;-63
2022/04/27 07:40:50;;;;;;;8.13;7.40;;;;;;;10.77;76.08;95878.13;4389057;32;20220;-64
2022/04/27 07:43:18;;;;;;;8.97;8.10;;;;;;;10.94;74.90;95881.16;4389036;32;20180;-62
2022/04/27 07:45:44;;;;;;;7.93;7.33;;;;;;;10.75;74.92;95889.03;4390710;32;20220;-67
2022/04/27 07:48:10;;;;;;;8.27;7.77;;;;;;;10.65;74.77;95887.25;4391759;32;20230;-64
2022/04/27 07:50:35;;;;;;;8.13;7.50;;;;;;;10.76;74.67;95887.97;4388847;32;20187;-62
2022/04/27 07:53:00;;;;;;;7.97;7.37;;;;;;;10.78;75.55;95891.13;4389868;32;21429;-62
2022/04/27 07:55:26;;;;;;;7.73;7.20;;;;;;;10.98;74.99;95895.44;4389455;32;20196;-63
2022/04/27 07:57:51;;;;;;;9.40;3.43;;;;;;;11.16;74.24;95904.53;4388309;32;20196;-39
2022/04/27 08:00:17;;;;;;;9.53;5.23;;;;;;;12.81;85.23;95893.75;4387874;32;20199;-42
2022/04/27 08:02:42;;;;;;;5.50;5.00;;;;;;;14.34;74.16;95896.81;4388901;32;20180;-41
2022/04/27 08:05:09;;;;;;;5.83;5.23;;;;;;;15.70;65.83;95897.09;4392189;32;20180;-42
2022/04/27 08:07:39;;;;;;;5.43;5.03;;;;;;;16.58;60.28;95899.50;4388271;32;20239;-41
2022/04/27 08:10:08;;;;;;;5.40;5.00;;;;;;;17.10;57.38;95901.00;4388639;32;20232;-42
2022/04/27 08:12:34;;;;;;;6.90;6.30;;;;;;;17.29;56.20;95906.00;4388466;32;20193;-60
2022/04/27 08:14:59;;;;;;;6.23;5.83;;;;;;;16.39;53.15;95906.00;4389409;32;20271;-61
2022/04/27 08:17:24;;;;;;;5.47;4.97;;;;;;;14.76;56.72;95914.25;4388824;32;20265;-61
2022/04/27 08:21:13;;;;;;;6.47;5.93;;;;;;;13.93;59.88;95904.91;4390170;32;20212;-60
2022/04/27 08:22:35;;;;;;;6.87;6.27;;;;;;;13.30;62.86;95909.13;4389112;32;20203;-59
2022/04/27 08:25:00;;;;;;;5.10;4.80;;;;;;;12.71;66.41;95904.56;4380353;32;20185;-59
2022/04/27 08:27:25;;;;;;;5.90;5.50;;;;;;;12.88;66.60;95906.69;4385607;32;20180;-58
2022/04/27 08:29:51;;;;;;;5.43;5.13;;;;;;;12.64;66.25;95898.84;4387714;32;20183;-60
2022/04/27 08:32:16;;;;;;;6.50;5.90;;;;;;;12.35;67.81;95902.47;4390146;32;20189;-59
2022/04/27 08:34:42;;;;;;;6.27;5.83;;;;;;;12.45;67.66;95906.06;4390079;32;20184;-60
2022/04/27 08:37:07;;;;;;;5.90;5.60;;;;;;;12.48;67.19;95908.91;4390413;32;20168;-58
2022/04/27 08:39:32;;;;;;;5.00;4.70;;;;;;;12.74;64.83;95911.97;4389805;32;20180;-60
2022/04/27 08:41:58;;;;;;;4.77;4.47;;;;;;;12.64;66.79;95910.28;4388050;32;20282;-60
2022/04/27 08:44:23;;;;;;;5.40;5.03;;;;;;;13.04;66.58;95910.66;4389998;32;20276;-59
2022/04/27 08:46:48;;;;;;;5.50;5.10;;;;;;;13.12;65.46;95906.50;4389562;32;20195;-58
2022/04/27 08:49:14;;;;;;;5.40;5.00;;;;;;;13.04;63.83;95913.31;4389243;32;20225;-58
2022/04/27 08:51:39;;;;;;;5.17;4.27;;;;;;;13.06;64.12;95917.28;4390114;32;20223;-59
2022/04/27 08:54:06;;;;;;;3.97;3.77;;;;;;;12.52;65.04;95919.78;4388104;32;20180;-58
2022/04/27 08:56:33;;;;;;;3.90;3.60;;;;;;;12.51;62.96;95921.66;4389357;32;20204;-59
2022/04/27 08:59:01;;;;;;;3.77;3.57;;;;;;;12.79;62.40;95919.09;4387365;32;20192;-58
2022/04/27 09:01:26;;;;;;;5.20;4.77;;;;;;;12.86;62.26;95925.63;4388465;32;20177;-60
2022/04/27 09:03:52;;;;;;;3.97;3.67;;;;;;;12.93;63.14;95918.03;4385292;32;20246;-58
2022/04/27 09:06:20;;;;;;;4.30;4.00;;;;;;;12.83;62.41;95917.41;4376407;32;20173;-61
2022/04/27 09:08:47;;;;;;;3.60;3.33;;;;;;;13.03;61.91;95927.72;4378614;32;20186;-59
2022/04/27 09:11:12;;;;;;;4.23;3.90;;;;;;;13.15;62.06;95921.91;4378685;32;20218;-59
2022/04/27 09:13:38;;;;;;;4.60;4.30;;;;;;;13.18;61.71;95934.66;4378706;32;20244;-60
2022/04/27 09:16:08;;;;;;;4.27;3.97;;;;;;;13.19;62.05;95931.72;4377763;32;20247;-59
2022/04/27 09:21:52;;;;;;;4.10;3.87;;;;;;;13.23;61.93;95932.72;4379824;32;20221;-59
2022/04/27 09:24:17;;;;;;;4.57;4.20;;;;;;;13.12;60.96;95936.59;4379377;32;20195;-61
2022/04/27 09:26:44;;;;;;;3.97;3.67;;;;;;;12.89;59.73;95948.19;4370854;32;20216;-59
2022/04/27 09:29:22;;;;;;;4.70;4.30;;;;;;;12.93;60.73;95934.00;4377868;32;20199;-59
2022/04/27 09:31:55;;;;;;;4.50;4.20;;;;;;;13.08;59.65;95941.75;4378457;32;20192;-59
2022/04/27 09:34:29;;;;;;;4.20;4.00;;;;;;;12.99;60.21;95940.81;4378325;32;20191;-58
2022/04/27 09:36:57;;;;;;;4.33;4.03;;;;;;;13.32;60.40;95946.13;4378072;32;20246;-60
2022/04/27 09:39:25;;;;;;;4.47;4.17;;;;;;;13.27;61.08;95943.56;4384047;32;20172;-60
2022/04/27 09:41:50;;;;;;;4.33;4.00;;;;;;;13.40;60.94;95942.78;4382321;32;20199;-57
2022/04/27 09:44:29;;;;;;;4.55;4.28;;;;;;;13.43;59.56;95947.53;4380984;32;20060;-57
2022/04/27 09:46:55;;;;;;;4.13;3.60;;;;;;;13.23;59.10;95945.25;4377892;32;20230;-59
2022/04/27 09:49:21;;;;;;;4.30;4.10;;;;;;;12.84;59.49;95940.31;4381245;32;20180;-60
2022/04/27 09:51:47;;;;;;;4.67;4.40;;;;;;;13.17;59.92;95943.75;4380239;32;20207;-61
2022/04/27 09:54:18;;;;;;;4.83;4.53;;;;;;;13.07;60.07;95945.50;4378914;32;20227;-60
2022/04/27 09:56:49;;;;;;;5.43;5.03;;;;;;;12.97;61.82;95942.19;4377004;32;20430;-59
2022/04/27 09:59:16;;;;;;;6.50;6.10;;;;;;;12.89;61.87;95945.53;4378129;32;20206;-56
2022/04/27 10:01:43;;;;;;;5.47;5.10;;;;;;;12.82;62.17;95943.25;4380547;32;20172;-60
2022/04/27 10:04:12;;;;;;;6.20;5.80;;;;;;;12.87;63.45;95945.06;4382301;32;20184;-60
2022/04/27 10:06:38;;;;;;;7.17;6.50;;;;;;;12.98;63.68;95957.09;4381398;32;20189;-58
2022/04/27 10:09:04;;;;;;;5.33;5.03;;;;;;;12.92;63.83;95951.06;4382688;32;20192;-61
2022/04/27 10:11:32;;;;;;;5.30;4.90;;;;;;;12.91;61.92;95962.00;4381680;32;20283;-61
2022/04/27 10:13:57;;;;;;;5.97;5.57;;;;;;;12.63;63.45;95955.81;4382293;32;20188;-61
2022/04/27 10:16:25;;;;;;;6.07;5.57;;;;;;;12.53;63.83;95959.41;4383697;32;20180;-61
2022/04/27 10:18:51;;;;;;;6.37;5.93;;;;;;;12.49;63.80;95962.94;4382273;32;20180;-61
2022/04/27 10:21:39;;;;;;;7.93;7.33;;;;;;;12.59;64.49;95960.13;4379235;32;20185;-60
2022/04/27 10:24:06;;;;;;;7.07;6.57;;;;;;;12.78;64.31;95957.44;4378427;32;20199;-59
2022/04/27 10:26:31;;;;;;;6.00;5.67;;;;;;;12.83;64.61;95960.81;4380639;32;20192;-62
2022/04/27 10:29:04;;;;;;;6.30;5.90;;;;;;;12.68;65.71;95953.06;4383257;32;20245;-59
2022/04/27 10:31:47;;;;;;;6.33;5.83;;;;;;;12.59;65.61;95963.59;4381497;32;20184;-60
2022/04/27 10:34:24;;;;;;;6.33;5.87;;;;;;;12.64;66.24;95973.38;4380738;32;20181;-60
2022/04/27 10:36:50;;;;;;;5.80;5.37;;;;;;;13.05;65.15;95966.31;4381606;32;20184;-60
2022/04/27 10:39:18;;;;;;;5.50;5.10;;;;;;;13.24;64.94;95963.59;4383205;32;20202;-60
2022/04/27 10:41:55;;;;;;;5.50;5.10;;;;;;;13.22;62.75;95965.78;4382971;32;20226;-60
2022/04/27 10:44:21;;;;;;;6.17;5.67;;;;;;;13.45;62.60;95965.91;4369817;32;20227;-60
2022/04/27 10:46:46;;;;;;;6.40;5.80;;;;;;;13.29;62.92;95962.72;4383084;32;20263;-60
2022/04/27 10:49:25;;;;;;;6.27;5.77;;;;;;;13.52;62.61;95969.75;4383872;32;20273;-60
2022/04/27 10:52:07;;;;;;;6.00;5.60;;;;;;;13.90;61.26;95961.56;4381820;32;20189;-60
2022/04/27 10:54:34;;;;;;;7.00;6.50;;;;;;;13.59;62.76;95972.03;4380050;32;20273;-60
2022/04/27 10:57:15;;;;;;;6.30;5.90;;;;;;;13.35;63.42;95966.88;4371904;32;20184;-60
2022/04/27 10:59:47;;;;;;;6.83;6.33;;;;;;;13.19;63.14;95973.56;4373398;32;20192;-60
2022/04/27 11:02:34;;;;;;;6.90;6.50;;;;;;;12.99;65.12;95966.66;4365677;32;20226;-60
2022/04/27 11:05:04;;;;;;;6.70;6.20;;;;;;;13.27;63.83;95971.00;4371972;32;20187;-60
2022/04/27 11:07:48;;;;;;;6.47;5.97;;;;;;;13.31;63.42;95971.19;4381279;32;20204;-60
2022/04/27 11:10:17;;;;;;;7.13;6.60;;;;;;;13.32;62.86;95981.56;4379033;32;20202;-59
2022/04/27 11:12:54;;;;;;;6.80;6.40;;;;;;;13.57;63.16;95974.19;4380499;32;20224;-60
2022/04/27 11:15:27;;;;;;;6.77;6.37;;;;;;;13.50;63.51;95997.78;4381140;32;20191;-60
2022/04/27 11:18:00;;;;;;;6.97;6.47;;;;;;;13.48;64.48;95986.63;4376079;32;20192;-60
2022/04/27 11:20:28;;;;;;;7.20;6.60;;;;;;;13.68;64.89;95995.03;4377666;32;20172;-60
2022/04/27 11:22:54;;;;;;;6.50;6.10;;;;;;;13.66;63.23;95997.22;4378607;32;20187;-59
2022/04/27 11:25:24;;;;;;;6.37;5.97;;;;;;;13.44;63.81;95988.31;4377828;32;20252;-60
2022/04/27 11:27:50;;;;;;;5.77;5.37;;;;;;;13.29;62.72;95984.06;4378704;32;20196;-60
2022/04/27 11:30:17;;;;;;;6.07;5.67;;;;;;;13.34;62.07;95986.59;4378136;32;20183;-60
2022/04/27 11:32:46;;;;;;;6.03;5.53;;;;;;;13.32;61.05;95988.75;4377464;32;20192;-60
2022/04/27 11:35:12;;;;;;;7.33;6.73;;;;;;;13.06;63.58;95997.19;4370685;32;20180;-62
2022/04/27 11:37:38;;;;;;;7.60;7.00;;;;;;;13.11;64.04;96003.50;4378630;32;20223;-59
2022/04/27 11:40:17;;;;;;;6.87;6.47;;;;;;;13.24;64.04;96002.78;4376882;32;20199;-59
2022/04/27 11:42:52;;;;;;;7.30;6.70;;;;;;;13.33;63.65;96009.00;4377268;32;20195;-58
2022/04/27 11:45:20;;;;;;;6.87;6.37;;;;;;;13.21;63.41;96008.69;4378822;32;20181;-60
2022/04/27 11:47:55;;;;;;;6.80;6.30;;;;;;;12.85;63.86;96006.59;4371543;32;20185;-59